sensor_id;sensor_type;location;lat;lon;timestamp;pressure;altitude;pressure_sealevel;temperature;humidity
51617;BME280;37697;52.588;13.394;2023-07-22T00:04:33;100592.14;;;13.10;88.39
51617;BME280;37697;52.588;13.394;2023-07-22T00:09:39;100593.42;;;13.09;88.44
51617;BME280;37697;52.588;13.394;2023-07-22T00:14:46;100598.24;;;13.07;88.53
51617;BME280;37697;52.588;13.394;2023-07-22T00:19:52;100601.99;;;13.06;88.69
51617;BME280;37697;52.588;13.394;2023-07-22T00:24:57;100599.42;;;13.05;89.06
51617;BME280;37697;52.588;13.394;2023-07-22T00:30:07;100589.73;;;13.06;89.48
51617;BME280;37697;52.588;13.394;2023-07-22T00:35:12;100591.73;;;13.10;89.79
51617;BME280;37697;52.588;13.394;2023-07-22T00:40:18;100598.30;;;13.15;90.48
51617;BME280;37697;52.588;13.394;2023-07-22T00:45:24;100605.02;;;13.16;90.78
51617;BME280;37697;52.588;13.394;2023-07-22T00:50:29;100606.98;;;13.15;91.16
51617;BME280;37697;52.588;13.394;2023-07-22T00:55:36;100606.49;;;13.16;91.74
51617;BME280;37697;52.588;13.394;2023-07-22T01:00:44;100597.99;;;13.19;92.04
51617;BME280;37697;52.588;13.394;2023-07-22T01:05:50;100598.65;;;13.21;92.25
51617;BME280;37697;52.588;13.394;2023-07-22T01:10:57;100600.61;;;13.26;92.50
51617;BME280;37697;52.588;13.394;2023-07-22T01:16:05;100610.79;;;13.27;92.79
51617;BME280;37697;52.588;13.394;2023-07-22T01:21:11;100600.24;;;13.28;92.97
51617;BME280;37697;52.588;13.394;2023-07-22T01:26:17;100596.77;;;13.31;93.09
51617;BME280;37697;52.588;13.394;2023-07-22T01:31:22;100600.75;;;13.31;93.14
51617;BME280;37697;52.588;13.394;2023-07-22T01:36:28;100605.91;;;13.33;93.38
51617;BME280;37697;52.588;13.394;2023-07-22T01:41:33;100601.36;;;13.30;93.80
51617;BME280;37697;52.588;13.394;2023-07-22T01:46:39;100604.85;;;13.31;94.03
51617;BME280;37697;52.588;13.394;2023-07-22T01:51:45;100602.24;;;13.31;94.08
51617;BME280;37697;52.588;13.394;2023-07-22T01:56:51;100600.81;;;13.31;94.24
51617;BME280;37697;52.588;13.394;2023-07-22T02:01:56;100599.89;;;13.32;94.24
51617;BME280;37697;52.588;13.394;2023-07-22T02:07:01;100619.48;;;13.32;94.41
51617;BME280;37697;52.588;13.394;2023-07-22T02:12:08;100623.82;;;13.31;94.66
51617;BME280;37697;52.588;13.394;2023-07-22T02:17:14;100620.08;;;13.30;94.92
51617;BME280;37697;52.588;13.394;2023-07-22T02:22:19;100634.89;;;13.26;94.87
51617;BME280;37697;52.588;13.394;2023-07-22T02:27:25;100639.80;;;13.21;95.32
51617;BME280;37697;52.588;13.394;2023-07-22T02:32:30;100643.27;;;13.18;95.21
51617;BME280;37697;52.588;13.394;2023-07-22T02:37:37;100651.08;;;13.12;95.36
51617;BME280;37697;52.588;13.394;2023-07-22T02:42:43;100659.23;;;13.08;95.22
51617;BME280;37697;52.588;13.394;2023-07-22T02:47:48;100660.61;;;13.00;95.34
51617;BME280;37697;52.588;13.394;2023-07-22T02:52:54;100660.13;;;12.96;95.40
51617;BME280;37697;52.588;13.394;2023-07-22T02:57:59;100666.31;;;12.90;95.35
51617;BME280;37697;52.588;13.394;2023-07-22T03:03:05;100670.46;;;12.86;95.36
51617;BME280;37697;52.588;13.394;2023-07-22T03:08:10;100677.30;;;12.81;95.18
51617;BME280;37697;52.588;13.394;2023-07-22T03:13:16;100680.88;;;12.76;95.25
51617;BME280;37697;52.588;13.394;2023-07-22T03:18:22;100684.08;;;12.69;95.11
51617;BME280;37697;52.588;13.394;2023-07-22T03:23:27;100688.55;;;12.68;95.39
51617;BME280;37697;52.588;13.394;2023-07-22T03:28:33;100692.08;;;12.66;95.16
51617;BME280;37697;52.588;13.394;2023-07-22T03:33:38;100694.60;;;12.65;95.06
51617;BME280;37697;52.588;13.394;2023-07-22T03:38:44;100698.03;;;12.61;95.03
51617;BME280;37697;52.588;13.394;2023-07-22T03:43:49;100704.17;;;12.61;95.18
51617;BME280;37697;52.588;13.394;2023-07-22T03:48:55;100710.46;;;12.59;94.99
51617;BME280;37697;52.588;13.394;2023-07-22T03:54:00;100713.99;;;12.57;95.02
51617;BME280;37697;52.588;13.394;2023-07-22T03:59:06;100715.04;;;12.55;94.93
51617;BME280;37697;52.588;13.394;2023-07-22T04:04:11;100715.41;;;12.55;95.05
51617;BME280;37697;52.588;13.394;2023-07-22T04:09:17;100720.48;;;12.60;95.37
51617;BME280;37697;52.588;13.394;2023-07-22T04:14:22;100716.12;;;12.66;95.28
51617;BME280;37697;52.588;13.394;2023-07-22T04:19:28;100718.65;;;12.66;95.29
51617;BME280;37697;52.588;13.394;2023-07-22T04:24:36;100721.95;;;12.65;95.42
51617;BME280;37697;52.588;13.394;2023-07-22T04:29:41;100724.14;;;12.90;94.86
51617;BME280;37697;52.588;13.394;2023-07-22T04:34:47;100728.70;;;13.60;91.75
51617;BME280;37697;52.588;13.394;2023-07-22T04:39:53;100728.87;;;14.34;89.47
51617;BME280;37697;52.588;13.394;2023-07-22T04:44:58;100724.34;;;14.70;88.78
51617;BME280;37697;52.588;13.394;2023-07-22T04:50:04;100730.90;;;14.30;89.85
51617;BME280;37697;52.588;13.394;2023-07-22T04:55:14;100736.31;;;14.03;90.37
51617;BME280;37697;52.588;13.394;2023-07-22T05:00:19;100734.80;;;14.52;88.36
51617;BME280;37697;52.588;13.394;2023-07-22T05:05:26;100737.01;;;15.00;86.08
51617;BME280;37697;52.588;13.394;2023-07-22T05:10:31;100750.67;;;15.43;85.33
51617;BME280;37697;52.588;13.394;2023-07-22T05:15:36;100755.71;;;15.80;84.43
51617;BME280;37697;52.588;13.394;2023-07-22T05:20:42;100758.16;;;15.49;84.13
51617;BME280;37697;52.588;13.394;2023-07-22T05:25:53;100755.70;;;15.08;85.85
51617;BME280;37697;52.588;13.394;2023-07-22T05:30:59;100766.25;;;14.97;86.41
51617;BME280;37697;52.588;13.394;2023-07-22T05:36:05;100765.46;;;15.12;85.93
51617;BME280;37697;52.588;13.394;2023-07-22T05:41:11;100772.07;;;15.30;85.38
51617;BME280;37697;52.588;13.394;2023-07-22T05:46:16;100775.20;;;15.29;85.12
51617;BME280;37697;52.588;13.394;2023-07-22T05:51:22;100782.69;;;15.28;85.43
51617;BME280;37697;52.588;13.394;2023-07-22T05:56:28;100784.09;;;15.20;85.45
51617;BME280;37697;52.588;13.394;2023-07-22T06:01:34;100786.41;;;15.21;85.75
51617;BME280;37697;52.588;13.394;2023-07-22T06:06:40;100787.02;;;15.28;86.43
51617;BME280;37697;52.588;13.394;2023-07-22T06:11:45;100790.05;;;15.44;85.70
51617;BME280;37697;52.588;13.394;2023-07-22T06:16:50;100786.93;;;15.63;85.67
51617;BME280;37697;52.588;13.394;2023-07-22T06:21:56;100793.30;;;15.83;85.10
51617;BME280;37697;52.588;13.394;2023-07-22T06:27:02;100801.92;;;15.87;84.70
51617;BME280;37697;52.588;13.394;2023-07-22T06:32:08;100804.77;;;15.95;85.02
51617;BME280;37697;52.588;13.394;2023-07-22T06:37:14;100809.04;;;16.05;83.60
51617;BME280;37697;52.588;13.394;2023-07-22T06:42:19;100802.29;;;16.12;83.42
51617;BME280;37697;52.588;13.394;2023-07-22T06:47:25;100808.48;;;16.29;83.78
51617;BME280;37697;52.588;13.394;2023-07-22T06:52:31;100812.91;;;16.46;83.42
51617;BME280;37697;52.588;13.394;2023-07-22T06:57:36;100811.14;;;16.36;81.38
51617;BME280;37697;52.588;13.394;2023-07-22T07:02:43;100815.37;;;16.48;81.70
51617;BME280;37697;52.588;13.394;2023-07-22T07:07:50;100819.46;;;16.87;80.50
51617;BME280;37697;52.588;13.394;2023-07-22T07:12:56;100821.69;;;17.00;79.12
51617;BME280;37697;52.588;13.394;2023-07-22T07:18:02;100816.07;;;17.06;78.34
51617;BME280;37697;52.588;13.394;2023-07-22T07:23:07;100819.02;;;17.27;77.16
51617;BME280;37697;52.588;13.394;2023-07-22T07:28:13;100818.17;;;17.46;77.13
51617;BME280;37697;52.588;13.394;2023-07-22T07:33:20;100818.48;;;17.73;75.95
51617;BME280;37697;52.588;13.394;2023-07-22T07:38:26;100826.38;;;17.73;74.33
51617;BME280;37697;52.588;13.394;2023-07-22T07:43:32;100832.77;;;17.74;74.24
51617;BME280;37697;52.588;13.394;2023-07-22T07:48:38;100838.70;;;17.71;73.63
51617;BME280;37697;52.588;13.394;2023-07-22T07:53:44;100842.64;;;17.64;73.82
51617;BME280;37697;52.588;13.394;2023-07-22T07:58:55;100847.30;;;17.58;72.96
51617;BME280;37697;52.588;13.394;2023-07-22T08:04:01;100851.34;;;17.62;73.26
51617;BME280;37697;52.588;13.394;2023-07-22T08:09:06;100850.22;;;17.70;72.58
51617;BME280;37697;52.588;13.394;2023-07-22T08:14:12;100854.48;;;17.57;72.18
51617;BME280;37697;52.588;13.394;2023-07-22T08:19:17;100855.26;;;17.68;71.83
51617;BME280;37697;52.588;13.394;2023-07-22T08:24:23;100851.80;;;17.86;71.60
51617;BME280;37697;52.588;13.394;2023-07-22T08:29:28;100856.70;;;18.01;71.04
51617;BME280;37697;52.588;13.394;2023-07-22T08:34:34;100862.48;;;18.29;69.86
51617;BME280;37697;52.588;13.394;2023-07-22T08:39:39;100865.36;;;18.24;68.86
51617;BME280;37697;52.588;13.394;2023-07-22T08:44:48;100870.45;;;18.05;68.57
51617;BME280;37697;52.588;13.394;2023-07-22T08:49:58;100876.05;;;18.01;68.91
51617;BME280;37697;52.588;13.394;2023-07-22T08:55:07;100877.10;;;18.20;68.17
51617;BME280;37697;52.588;13.394;2023-07-22T09:00:17;100883.17;;;18.31;67.57
51617;BME280;37697;52.588;13.394;2023-07-22T09:05:24;100887.36;;;18.57;66.39
51617;BME280;37697;52.588;13.394;2023-07-22T09:10:30;100886.02;;;18.96;66.20
51617;BME280;37697;52.588;13.394;2023-07-22T09:15:37;100887.66;;;19.13;65.28
51617;BME280;37697;52.588;13.394;2023-07-22T09:20:42;100885.70;;;18.96;64.56
51617;BME280;37697;52.588;13.394;2023-07-22T09:25:48;100883.20;;;19.19;64.33
51617;BME280;37697;52.588;13.394;2023-07-22T09:31:03;100880.71;;;19.50;62.87
51617;BME280;37697;52.588;13.394;2023-07-22T09:36:11;100883.81;;;19.53;62.35
51617;BME280;37697;52.588;13.394;2023-07-22T09:41:20;100884.70;;;19.75;62.51
51617;BME280;37697;52.588;13.394;2023-07-22T09:46:32;100881.13;;;19.52;61.52
51617;BME280;37697;52.588;13.394;2023-07-22T09:51:41;100874.46;;;19.36;61.61
51617;BME280;37697;52.588;13.394;2023-07-22T09:57:06;100872.27;;;19.68;62.05
51617;BME280;37697;52.588;13.394;2023-07-22T10:02:12;100877.42;;;20.09;60.69
51617;BME280;37697;52.588;13.394;2023-07-22T10:07:18;100881.28;;;20.10;60.26
51617;BME280;37697;52.588;13.394;2023-07-22T10:12:25;100885.42;;;19.96;58.40
51617;BME280;37697;52.588;13.394;2023-07-22T10:17:32;100884.80;;;19.64;58.85
51617;BME280;37697;52.588;13.394;2023-07-22T10:22:39;100891.10;;;19.58;59.38
51617;BME280;37697;52.588;13.394;2023-07-22T10:27:46;100889.61;;;19.65;58.92
51617;BME280;37697;52.588;13.394;2023-07-22T10:32:52;100887.38;;;20.01;58.67
51617;BME280;37697;52.588;13.394;2023-07-22T10:38:08;100890.55;;;20.47;58.12
51617;BME280;37697;52.588;13.394;2023-07-22T10:43:16;100894.81;;;20.75;57.93
51617;BME280;37697;52.588;13.394;2023-07-22T10:48:25;100898.55;;;20.90;56.16
51617;BME280;37697;52.588;13.394;2023-07-22T10:53:32;100888.54;;;20.46;55.63
51617;BME280;37697;52.588;13.394;2023-07-22T10:58:57;100889.96;;;20.16;55.25
51617;BME280;37697;52.588;13.394;2023-07-22T11:04:14;100874.12;;;20.30;55.30
51617;BME280;37697;52.588;13.394;2023-07-22T11:09:39;100875.66;;;20.77;55.16
51617;BME280;37697;52.588;13.394;2023-07-22T11:14:49;100880.44;;;20.72;53.67
51617;BME280;37697;52.588;13.394;2023-07-22T11:19:56;100877.68;;;20.82;54.13
51617;BME280;37697;52.588;13.394;2023-07-22T11:25:01;100870.73;;;21.17;53.93
51617;BME280;37697;52.588;13.394;2023-07-22T11:30:12;100870.52;;;21.10;52.51
51617;BME280;37697;52.588;13.394;2023-07-22T11:35:18;100871.23;;;21.18;51.85
51617;BME280;37697;52.588;13.394;2023-07-22T11:40:34;100875.53;;;21.04;50.58
51617;BME280;37697;52.588;13.394;2023-07-22T11:45:40;100874.86;;;20.76;50.88
51617;BME280;37697;52.588;13.394;2023-07-22T11:50:46;100872.81;;;21.07;52.27
51617;BME280;37697;52.588;13.394;2023-07-22T11:55:54;100875.92;;;20.95;51.27
51617;BME280;37697;52.588;13.394;2023-07-22T12:01:09;100873.21;;;20.78;51.50
51617;BME280;37697;52.588;13.394;2023-07-22T12:06:17;100870.95;;;20.97;50.91
51617;BME280;37697;52.588;13.394;2023-07-22T12:11:24;100867.13;;;20.91;51.21
51617;BME280;37697;52.588;13.394;2023-07-22T12:16:31;100871.11;;;21.29;51.24
51617;BME280;37697;52.588;13.394;2023-07-22T12:21:36;100869.60;;;21.72;50.33
51617;BME280;37697;52.588;13.394;2023-07-22T12:26:42;100864.23;;;21.72;49.09
51617;BME280;37697;52.588;13.394;2023-07-22T12:31:47;100859.64;;;21.96;49.11
51617;BME280;37697;52.588;13.394;2023-07-22T12:36:53;100855.70;;;22.18;49.29
51617;BME280;37697;52.588;13.394;2023-07-22T12:41:59;100849.92;;;22.07;49.53
51617;BME280;37697;52.588;13.394;2023-07-22T12:47:04;100847.16;;;21.87;49.45
51617;BME280;37697;52.588;13.394;2023-07-22T12:52:10;100845.17;;;21.82;49.42
51617;BME280;37697;52.588;13.394;2023-07-22T12:57:17;100846.20;;;21.98;49.33
51617;BME280;37697;52.588;13.394;2023-07-22T13:02:22;100850.15;;;21.67;47.96
51617;BME280;37697;52.588;13.394;2023-07-22T13:07:28;100860.36;;;21.42;48.46
51617;BME280;37697;52.588;13.394;2023-07-22T13:12:33;100855.80;;;21.51;48.92
51617;BME280;37697;52.588;13.394;2023-07-22T13:17:39;100852.15;;;21.88;48.88
51617;BME280;37697;52.588;13.394;2023-07-22T13:22:45;100849.64;;;22.16;47.95
51617;BME280;37697;52.588;13.394;2023-07-22T13:27:50;100847.73;;;22.27;47.57
51617;BME280;37697;52.588;13.394;2023-07-22T13:32:56;100842.27;;;22.08;47.83
51617;BME280;37697;52.588;13.394;2023-07-22T13:38:02;100834.77;;;22.05;48.30
51617;BME280;37697;52.588;13.394;2023-07-22T13:43:07;100832.55;;;22.07;48.09
51617;BME280;37697;52.588;13.394;2023-07-22T13:48:15;100826.20;;;21.89;48.36
51617;BME280;37697;52.588;13.394;2023-07-22T13:53:20;100831.77;;;21.75;48.61
51617;BME280;37697;52.588;13.394;2023-07-22T13:58:26;100834.03;;;21.60;48.24
51617;BME280;37697;52.588;13.394;2023-07-22T14:03:31;100836.27;;;21.23;47.92
51617;BME280;37697;52.588;13.394;2023-07-22T14:08:37;100836.02;;;21.12;48.51
51617;BME280;37697;52.588;13.394;2023-07-22T14:13:42;100832.05;;;21.24;49.09
51617;BME280;37697;52.588;13.394;2023-07-22T14:18:47;100825.98;;;21.34;48.68
51617;BME280;37697;52.588;13.394;2023-07-22T14:23:53;100825.01;;;21.42;48.26
51617;BME280;37697;52.588;13.394;2023-07-22T14:29:00;100825.35;;;21.57;48.53
51617;BME280;37697;52.588;13.394;2023-07-22T14:34:05;100831.30;;;21.59;48.70
51617;BME280;37697;52.588;13.394;2023-07-22T14:39:11;100824.02;;;21.49;48.88
51617;BME280;37697;52.588;13.394;2023-07-22T14:44:18;100826.21;;;21.39;49.06
51617;BME280;37697;52.588;13.394;2023-07-22T14:49:23;100831.06;;;21.42;48.63
51617;BME280;37697;52.588;13.394;2023-07-22T14:54:29;100819.27;;;21.29;48.50
51617;BME280;37697;52.588;13.394;2023-07-22T14:59:34;100823.83;;;21.20;49.05
51617;BME280;37697;52.588;13.394;2023-07-22T15:04:40;100822.52;;;20.96;48.94
51617;BME280;37697;52.588;13.394;2023-07-22T15:09:45;100818.02;;;20.81;49.28
51617;BME280;37697;52.588;13.394;2023-07-22T15:14:50;100823.34;;;20.66;49.36
51617;BME280;37697;52.588;13.394;2023-07-22T15:19:56;100821.93;;;20.72;49.67
51617;BME280;37697;52.588;13.394;2023-07-22T15:25:02;100823.96;;;20.91;50.11
51617;BME280;37697;52.588;13.394;2023-07-22T15:30:09;100825.23;;;20.99;49.70
51617;BME280;37697;52.588;13.394;2023-07-22T15:35:15;100817.30;;;20.98;49.46
51617;BME280;37697;52.588;13.394;2023-07-22T15:40:21;100815.20;;;20.98;49.33
51617;BME280;37697;52.588;13.394;2023-07-22T15:45:26;100809.26;;;21.15;49.77
51617;BME280;37697;52.588;13.394;2023-07-22T15:50:33;100803.98;;;21.19;49.75
51617;BME280;37697;52.588;13.394;2023-07-22T15:55:39;100799.62;;;21.31;49.88
51617;BME280;37697;52.588;13.394;2023-07-22T16:00:44;100802.70;;;21.48;49.69
51617;BME280;37697;52.588;13.394;2023-07-22T16:05:49;100798.83;;;21.51;49.60
51617;BME280;37697;52.588;13.394;2023-07-22T16:10:55;100795.96;;;21.44;49.32
51617;BME280;37697;52.588;13.394;2023-07-22T16:16:00;100792.54;;;21.48;49.61
51617;BME280;37697;52.588;13.394;2023-07-22T16:21:06;100795.98;;;21.44;49.11
51617;BME280;37697;52.588;13.394;2023-07-22T16:26:13;100795.68;;;21.36;49.39
51617;BME280;37697;52.588;13.394;2023-07-22T16:31:18;100792.92;;;21.34;49.01
51617;BME280;37697;52.588;13.394;2023-07-22T16:36:24;100790.34;;;21.30;49.49
51617;BME280;37697;52.588;13.394;2023-07-22T16:41:29;100794.02;;;21.28;48.94
51617;BME280;37697;52.588;13.394;2023-07-22T16:46:35;100796.13;;;21.24;48.93
51617;BME280;37697;52.588;13.394;2023-07-22T16:51:40;100790.33;;;21.12;49.18
51617;BME280;37697;52.588;13.394;2023-07-22T16:56:46;100788.98;;;20.98;49.68
51617;BME280;37697;52.588;13.394;2023-07-22T17:01:51;100786.55;;;20.87;49.77
51617;BME280;37697;52.588;13.394;2023-07-22T17:06:57;100782.79;;;20.78;49.97
51617;BME280;37697;52.588;13.394;2023-07-22T17:12:07;100785.09;;;20.69;49.94
51617;BME280;37697;52.588;13.394;2023-07-22T17:17:12;100786.50;;;20.63;50.75
51617;BME280;37697;52.588;13.394;2023-07-22T17:22:18;100785.48;;;20.56;50.85
51617;BME280;37697;52.588;13.394;2023-07-22T17:27:23;100779.45;;;20.55;51.44
51617;BME280;37697;52.588;13.394;2023-07-22T17:32:29;100777.54;;;20.55;51.62
51617;BME280;37697;52.588;13.394;2023-07-22T17:37:34;100775.95;;;20.56;51.40
51617;BME280;37697;52.588;13.394;2023-07-22T17:42:40;100774.57;;;20.55;51.32
51617;BME280;37697;52.588;13.394;2023-07-22T17:47:45;100767.52;;;20.50;51.55
51617;BME280;37697;52.588;13.394;2023-07-22T17:52:51;100764.23;;;20.40;51.59
51617;BME280;37697;52.588;13.394;2023-07-22T17:57:56;100757.14;;;20.29;52.32
51617;BME280;37697;52.588;13.394;2023-07-22T18:03:02;100755.30;;;20.13;52.92
51617;BME280;37697;52.588;13.394;2023-07-22T18:08:07;100751.15;;;19.93;53.40
51617;BME280;37697;52.588;13.394;2023-07-22T18:13:13;100752.14;;;19.77;54.01
51617;BME280;37697;52.588;13.394;2023-07-22T18:18:18;100745.64;;;19.65;54.70
51617;BME280;37697;52.588;13.394;2023-07-22T18:23:24;100747.49;;;19.55;54.99
51617;BME280;37697;52.588;13.394;2023-07-22T18:28:30;100752.19;;;19.41;55.42
51617;BME280;37697;52.588;13.394;2023-07-22T18:33:36;100749.54;;;19.24;56.03
51617;BME280;37697;52.588;13.394;2023-07-22T18:38:42;100750.06;;;19.09;56.69
51617;BME280;37697;52.588;13.394;2023-07-22T18:43:50;100747.35;;;18.99;57.24
51617;BME280;37697;52.588;13.394;2023-07-22T18:48:56;100743.66;;;18.88;57.70
51617;BME280;37697;52.588;13.394;2023-07-22T18:54:02;100739.46;;;18.81;58.12
51617;BME280;37697;52.588;13.394;2023-07-22T18:59:07;100740.27;;;18.72;58.56
51617;BME280;37697;52.588;13.394;2023-07-22T19:04:13;100741.31;;;18.60;58.91
51617;BME280;37697;52.588;13.394;2023-07-22T19:09:18;100744.98;;;18.46;59.32
51617;BME280;37697;52.588;13.394;2023-07-22T19:14:24;100746.02;;;18.31;59.66
51617;BME280;37697;52.588;13.394;2023-07-22T19:19:29;100741.96;;;18.16;60.02
51617;BME280;37697;52.588;13.394;2023-07-22T19:24:35;100739.11;;;18.03;60.44
51617;BME280;37697;52.588;13.394;2023-07-22T19:29:41;100739.36;;;17.90;60.94
51617;BME280;37697;52.588;13.394;2023-07-22T19:34:47;100742.30;;;17.77;61.30
51617;BME280;37697;52.588;13.394;2023-07-22T19:39:52;100749.67;;;17.68;61.80
51617;BME280;37697;52.588;13.394;2023-07-22T19:44:58;100754.60;;;17.60;62.25
51617;BME280;37697;52.588;13.394;2023-07-22T19:50:03;100750.78;;;17.53;62.64
51617;BME280;37697;52.588;13.394;2023-07-22T19:55:09;100739.05;;;17.45;63.16
51617;BME280;37697;52.588;13.394;2023-07-22T20:00:15;100729.65;;;17.35;63.49
51617;BME280;37697;52.588;13.394;2023-07-22T20:05:20;100727.17;;;17.27;63.79
51617;BME280;37697;52.588;13.394;2023-07-22T20:10:26;100720.46;;;17.21;64.32
51617;BME280;37697;52.588;13.394;2023-07-22T20:15:35;100723.49;;;17.14;64.58
51617;BME280;37697;52.588;13.394;2023-07-22T20:20:41;100727.38;;;17.09;64.88
51617;BME280;37697;52.588;13.394;2023-07-22T20:25:46;100727.41;;;17.02;65.22
51617;BME280;37697;52.588;13.394;2023-07-22T20:30:52;100727.65;;;16.97;65.56
51617;BME280;37697;52.588;13.394;2023-07-22T20:35:59;100734.38;;;16.95;65.88
51617;BME280;37697;52.588;13.394;2023-07-22T20:41:06;100731.41;;;16.91;66.21
51617;BME280;37697;52.588;13.394;2023-07-22T20:46:11;100722.09;;;16.85;66.32
51617;BME280;37697;52.588;13.394;2023-07-22T20:51:17;100718.95;;;16.83;66.66
51617;BME280;37697;52.588;13.394;2023-07-22T20:56:24;100716.13;;;16.81;66.95
51617;BME280;37697;52.588;13.394;2023-07-22T21:01:31;100711.80;;;16.78;67.09
51617;BME280;37697;52.588;13.394;2023-07-22T21:06:37;100709.95;;;16.75;67.23
51617;BME280;37697;52.588;13.394;2023-07-22T21:11:42;100705.73;;;16.72;67.22
51617;BME280;37697;52.588;13.394;2023-07-22T21:16:48;100705.99;;;16.65;67.54
51617;BME280;37697;52.588;13.394;2023-07-22T21:21:53;100704.64;;;16.61;67.57
51617;BME280;37697;52.588;13.394;2023-07-22T21:26:59;100705.18;;;16.56;67.89
51617;BME280;37697;52.588;13.394;2023-07-22T21:32:05;100701.27;;;16.54;68.15
51617;BME280;37697;52.588;13.394;2023-07-22T21:37:11;100693.94;;;16.50;68.26
51617;BME280;37697;52.588;13.394;2023-07-22T21:42:16;100689.88;;;16.47;68.41
51617;BME280;37697;52.588;13.394;2023-07-22T21:47:22;100688.60;;;16.45;68.52
51617;BME280;37697;52.588;13.394;2023-07-22T21:52:27;100684.42;;;16.44;68.65
51617;BME280;37697;52.588;13.394;2023-07-22T21:57:33;100680.80;;;16.42;68.52
51617;BME280;37697;52.588;13.394;2023-07-22T22:02:38;100682.31;;;16.40;68.81
51617;BME280;37697;52.588;13.394;2023-07-22T22:07:44;100676.22;;;16.36;68.76
51617;BME280;37697;52.588;13.394;2023-07-22T22:12:53;100680.64;;;16.32;68.95
51617;BME280;37697;52.588;13.394;2023-07-22T22:17:59;100679.07;;;16.28;68.69
51617;BME280;37697;52.588;13.394;2023-07-22T22:23:05;100680.06;;;16.25;68.76
51617;BME280;37697;52.588;13.394;2023-07-22T22:28:12;100679.77;;;16.24;68.57
51617;BME280;37697;52.588;13.394;2023-07-22T22:33:18;100669.19;;;16.23;68.48
51617;BME280;37697;52.588;13.394;2023-07-22T22:38:23;100666.24;;;16.23;67.99
51617;BME280;37697;52.588;13.394;2023-07-22T22:43:29;100658.09;;;16.25;67.37
51617;BME280;37697;52.588;13.394;2023-07-22T22:48:34;100654.85;;;16.28;67.13
51617;BME280;37697;52.588;13.394;2023-07-22T22:53:40;100653.23;;;16.30;66.83
51617;BME280;37697;52.588;13.394;2023-07-22T22:58:45;100648.92;;;16.32;66.60
51617;BME280;37697;52.588;13.394;2023-07-22T23:03:51;100644.70;;;16.32;66.43
51617;BME280;37697;52.588;13.394;2023-07-22T23:08:56;100638.71;;;16.30;66.30
51617;BME280;37697;52.588;13.394;2023-07-22T23:14:01;100636.09;;;16.28;65.91
51617;BME280;37697;52.588;13.394;2023-07-22T23:19:07;100632.42;;;16.29;65.63
51617;BME280;37697;52.588;13.394;2023-07-22T23:24:12;100623.77;;;16.32;65.43
51617;BME280;37697;52.588;13.394;2023-07-22T23:29:18;100622.82;;;16.34;65.20
51617;BME280;37697;52.588;13.394;2023-07-22T23:34:23;100615.43;;;16.41;64.77
51617;BME280;37697;52.588;13.394;2023-07-22T23:39:29;100613.00;;;16.50;64.26
51617;BME280;37697;52.588;13.394;2023-07-22T23:44:34;100614.16;;;16.59;63.84
51617;BME280;37697;52.588;13.394;2023-07-22T23:49:41;100609.79;;;16.63;63.60
51617;BME280;37697;52.588;13.394;2023-07-22T23:54:46;100605.59;;;16.66;63.26
51617;BME280;37697;52.588;13.394;2023-07-22T23:59:52;100604.16;;;16.71;62.92
